Latest Weather Observations for Rabbit Flat

IDD60801

Issued at 11:35 pm CST Friday 31 October 2014 (issued every 30 minutes, with the page automatically refreshed every 10 minutes)

About weather observations | Map of weather stations | Latest weather observations for NT | Other Formats
Station Details ID: 015666 Name: RABBIT FLAT Lat: -20.18 Lon: 130.01 Height: 340.0 m
Data from the previous 72 hours. | See also: Recent months at Rabbit Flat
Date/Time
CST
Temp
°C
App
Temp
°C
Dew
Point
Rel
Hum
%
Delta-T
°C
Wind Press
QNH
hPa
Press
MSL
hPa
Rain
since 9 am
mm
Dir
 
Spd
km/h
Gust
km/h
Spd
kts
Gust
kts
31/11:30pm 27.8 26.4 15.6 47 7.6 NNE 17 24 9 13 1010.4 - 3.8
31/11:00pm 28.0 26.8 16.0 48 7.5 NNE 17 28 9 15 1010.9 - 3.8
31/10:30pm 27.9 26.9 15.7 47 7.6 NNE 15 20 8 11 1011.1 - 3.8
31/10:00pm 26.9 26.7 16.6 53 6.5 NE 13 20 7 11 1010.8 - 3.8
31/09:30pm 26.2 26.0 17.7 59 5.4 E 15 22 8 12 1010.9 - 3.8
31/09:00pm 25.4 24.7 19.6 70 3.8 S 22 35 12 19 1011.6 1009.2 3.8
31/08:30pm 28.9 27.8 15.2 43 8.5 ENE 15 26 8 14 1009.7 - 3.8
31/08:00pm 29.7 26.9 14.2 38 9.5 NNE 22 35 12 19 1008.6 - 3.8
31/07:30pm 30.2 28.5 15.7 41 9.1 NNE 19 24 10 13 1008.1 - 3.8
31/07:00pm 28.9 28.4 17.9 51 7.1 SE 17 26 9 14 1008.1 - 3.8
31/06:30pm 29.4 29.7 18.0 50 7.4 ENE 13 17 7 9 1007.0 - 3.8
31/06:00pm 29.1 30.4 18.5 52 6.9 NNE 9 13 5 7 1007.1 1004.7 3.8
31/05:30pm 29.5 30.2 17.9 49 7.5 ENE 11 19 6 10 1006.0 - 3.8
31/05:00pm 29.2 30.6 18.6 52 6.9 SE 9 11 5 6 1006.0 - 3.8
31/04:30pm 29.5 29.2 17.4 48 7.8 E 15 22 8 12 1005.9 - 3.8
31/04:00pm 29.0 29.0 18.2 52 7.0 SE 15 22 8 12 1005.4 - 3.8
31/03:44pm 28.4 26.0 18.2 54 6.6 SE 28 35 15 19 1005.8 - 3.8
31/03:30pm 27.1 22.7 17.6 56 6.1 S 37 56 20 30 1005.9 - 3.8
31/03:26pm 24.8 20.5 19.6 73 3.4 S 41 56 22 30 1006.3 - 3.6
31/03:24pm 28.1 28.3 20.1 62 5.3 WSW 19 26 10 14 1006.3 - 2.2
31/03:00pm 33.2 30.5 14.7 32 11.6 SE 22 35 12 19 1005.3 1003.1 0.0
31/02:30pm 36.4 35.2 12.9 24 14.5 SSE 11 20 6 11 1005.9 - 0.0
31/02:00pm 39.1 36.1 9.4 16 17.6 NNW 15 26 8 14 1005.8 - 0.0
31/01:30pm 40.2 37.4 10.1 16 18.0 NNW 15 24 8 13 1006.4 - 0.0
31/01:00pm 41.2 38.3 9.7 15 18.9 N 15 30 8 16 1006.9 - 0.0
31/12:30pm 40.4 35.3 9.3 15 18.5 NNW 26 35 14 19 1007.8 - 0.0
31/12:00pm 39.5 37.2 11.8 19 17.0 WNW 15 32 8 17 1008.3 1006.1 0.0
31/11:30am 38.0 35.8 10.7 19 16.4 NNW 13 26 7 14 1008.8 - 0.0
31/11:00am 38.1 34.5 10.0 18 16.7 W 19 28 10 15 1009.3 - 0.0
31/10:30am 36.5 34.7 9.3 19 15.9 N 9 15 5 8 1009.8 - 0.0
31/10:00am 35.7 33.7 8.7 19 15.6 WNW 9 15 5 8 1010.0 - 0.0
31/09:30am 34.6 32.5 8.4 20 15.0 SE 9 15 5 8 1010.1 - 0.0
31/09:00am 33.1 29.7 4.0 16 15.4 SE 11 19 6 10 1010.1 1007.8 0.0
31/08:30am 32.1 26.7 1.4 14 15.5 S 19 26 10 14 1010.2 - 0.0
31/08:00am 30.5 27.1 3.8 18 13.9 SSE 11 17 6 9 1010.0 - 0.0
31/07:30am 27.5 23.7 6.0 25 11.4 S 15 24 8 13 1010.0 - 0.0
31/07:00am 25.0 23.3 8.3 34 9.1 SSE 7 13 4 7 1008.8 - 0.0
31/06:30am 23.2 20.2 6.0 33 8.9 S 11 15 6 8 1008.3 - 0.0
31/06:00am 22.7 20.4 7.4 37 8.1 S 9 11 5 6 1008.0 1005.7 0.0
31/05:30am 22.7 20.8 6.9 36 8.3 SSE 6 9 3 5 1007.5 - 0.0
31/05:00am 23.3 21.3 7.3 35 8.5 SE 7 7 4 4 1007.2 - 0.0
31/04:30am 22.8 22.7 9.3 42 7.4 CALM 0 0 0 0 1006.9 - 0.0
31/04:00am 22.4 21.9 7.7 38 7.8 CALM 0 0 0 0 1006.8 - 0.0
31/03:30am 22.0 20.3 7.4 39 7.7 W 6 6 3 3 1006.7 - 0.0
31/03:00am 21.6 19.7 7.6 40 7.4 W 7 9 4 5 1006.8 1004.5 0.0
31/02:30am 22.1 19.9 6.2 35 8.2 NNW 7 9 4 5 1006.9 - 0.0
31/02:00am 22.2 20.1 5.8 34 8.4 NNE 6 7 3 4 1007.2 - 0.0
31/01:30am 22.7 20.7 7.1 36 8.2 E 7 9 4 5 1007.5 - 0.0
31/01:00am 24.1 22.3 7.2 33 9.0 ESE 6 7 3 4 1007.7 - 0.0
31/12:30am 24.5 22.4 5.6 29 9.8 N 6 7 3 4 1008.0 - 0.0
31/12:00am 25.6 24.2 5.4 27 10.5 E 2 6 1 3 1008.4 1006.2 0.0
 
Date/Time
CST
Temp
°C
App
Temp
°C
Dew
Point
Rel
Hum
%
Delta-T
°C
Wind Press
QNH
hPa
Press
MSL
hPa
Rain
since 9 am
mm
Dir
 
Spd
km/h
Gust
km/h
Spd
kts
Gust
kts
30/11:30pm 28.2 25.3 4.5 22 12.3 NNE 9 11 5 6 1008.7 - 0.0
30/11:00pm 29.4 25.3 2.1 17 13.7 N 13 15 7 8 1008.9 - 0.0
30/10:30pm 27.3 23.9 4.1 22 11.9 N 11 17 6 9 1009.0 - 0.0
30/10:00pm 28.0 25.4 6.3 25 11.6 NE 9 11 5 6 1008.9 - 0.0
30/09:30pm 29.8 26.6 5.1 21 13.1 ENE 11 11 6 6 1008.8 - 0.0
30/09:00pm 30.4 28.0 7.1 23 12.8 ENE 9 11 5 6 1008.7 1006.5 0.0
30/08:30pm 31.5 29.3 7.9 23 13.2 ENE 9 11 5 6 1008.5 - 0.0
30/08:00pm 32.1 29.6 6.4 20 14.1 ENE 9 11 5 6 1008.2 - 0.0
30/07:30pm 32.7 31.7 10.3 25 13.1 ESE 6 9 3 5 1007.9 - 0.0
30/07:00pm 35.7 34.0 7.5 17 16.0 ESE 6 7 3 4 1007.6 - 0.0
30/06:30pm 38.5 37.1 8.8 16 17.4 E 6 9 3 5 1007.5 - 0.0
30/06:00pm 40.1 37.3 3.0 10 20.1 E 7 13 4 7 1007.2 1004.8 0.0
30/05:30pm 40.5 36.7 2.0 9 20.5 ENE 11 17 6 9 1007.0 - 0.0
30/05:00pm 40.6 36.7 0.9 8 20.9 N 11 19 6 10 1006.9 - 0.0
30/04:30pm 41.1 37.1 0.6 8 21.2 ENE 11 20 6 11 1007.0 - 0.0
30/04:00pm 41.4 36.9 0.0 7 21.6 NNW 13 22 7 12 1007.1 - 0.0
30/03:30pm 41.4 37.6 1.9 9 21.1 N 11 20 6 11 1007.5 - 0.0
30/03:00pm 41.1 36.6 -0.4 7 21.5 NNE 13 20 7 11 1007.7 1005.4 0.0
30/02:30pm 40.9 36.6 0.9 8 21.0 NE 13 22 7 12 1008.1 - 0.0
30/02:00pm 41.1 37.0 0.0 8 21.4 W 11 24 6 13 1008.4 - 0.0
30/01:30pm 40.1 34.0 -2.3 7 21.2 NNE 20 28 11 15 1008.9 - 0.0
30/01:00pm 40.1 34.6 -2.3 7 21.2 NNE 17 32 9 17 1009.4 - 0.0
30/12:30pm 40.8 34.9 -1.0 7 21.4 NE 20 39 11 21 1009.9 - 0.0
30/12:00pm 39.2 33.0 -0.1 8 20.2 ENE 22 43 12 23 1010.4 1008.1 0.0
30/11:30am 39.2 32.9 -1.1 8 20.4 N 22 39 12 21 1010.9 - 0.0
30/11:00am 38.2 32.2 1.1 10 19.3 ENE 22 32 12 17 1011.5 - 0.0
30/10:30am 37.2 29.7 1.4 10 18.6 NE 30 41 16 22 1011.9 - 0.0
30/10:07am 37.9 30.6 0.3 9 19.3 NNE 28 46 15 25 1011.7 - 0.0
30/10:00am 38.5 32.9 0.2 9 19.7 NNE 19 30 10 16 1011.7 - 0.0
30/09:30am 37.3 32.6 0.8 10 18.8 N 15 22 8 12 1011.9 - 0.0
30/09:00am 35.2 31.3 3.6 14 16.8 NNE 13 19 7 10 1011.8 1009.6 0.0
30/08:30am 33.5 29.2 3.5 15 15.8 N 15 20 8 11 1011.7 - 0.0
30/08:00am 31.5 28.1 4.1 17 14.4 NNE 11 17 6 9 1011.6 - 0.0
30/07:57am 30.8 27.4 4.0 18 14.0 NNE 11 17 6 9 1011.6 - 0.0
30/07:30am 25.7 25.1 9.1 35 9.2 SSW 2 7 1 4 1011.4 - 0.0
30/07:00am 21.2 20.8 8.2 43 6.9 CALM 0 0 0 0 1011.2 - 0.0
30/06:30am 19.1 18.6 7.8 48 5.9 CALM 0 0 0 0 1011.0 - 0.0
30/06:00am 19.6 17.1 6.5 42 6.7 WSW 9 9 5 5 1010.7 1008.5 0.0
30/05:30am 18.7 16.6 6.0 43 6.4 WNW 6 9 3 5 1010.3 - 0.0
30/05:00am 19.4 17.1 7.5 46 6.2 NNE 9 15 5 8 1010.1 - 0.0
30/04:30am 19.0 18.5 7.7 48 5.9 CALM 0 0 0 0 1010.0 - 0.0
30/04:00am 19.4 18.9 7.7 46 6.1 CALM 0 0 0 0 1010.1 - 0.0
30/03:30am 19.3 18.7 7.3 45 6.2 CALM 0 0 0 0 1010.2 - 0.0
30/03:00am 20.3 19.8 7.7 44 6.6 CALM 0 0 0 0 1010.3 1008.0 0.0
30/02:30am 20.7 20.1 7.5 42 6.9 CALM 0 0 0 0 1010.4 - 0.0
30/02:00am 21.1 20.4 6.8 39 7.4 CALM 0 0 0 0 1010.7 - 0.0
30/01:30am 21.5 20.9 7.4 40 7.4 CALM 0 0 0 0 1010.9 - 0.0
30/01:00am 22.2 21.8 8.4 41 7.4 CALM 0 0 0 0 1011.2 - 0.0
30/12:30am 22.8 21.3 7.0 36 8.3 W 4 9 2 5 1011.5 - 0.0
30/12:00am 23.1 22.0 6.7 34 8.6 W 2 7 1 4 1011.8 1009.6 0.0
 
Date/Time
CST
Temp
°C
App
Temp
°C
Dew
Point
Rel
Hum
%
Delta-T
°C
Wind Press
QNH
hPa
Press
MSL
hPa
Rain
since 9 am
mm
Dir
 
Spd
km/h
Gust
km/h
Spd
kts
Gust
kts
29/11:30pm 24.5 22.8 5.8 30 9.7 W 4 9 2 5 1012.1 - 0.0
29/11:00pm 25.1 23.4 7.4 32 9.5 WSW 6 7 3 4 1012.3 - 0.0
29/10:30pm 26.9 24.7 6.1 26 11.0 W 7 9 4 5 1012.3 - 0.0
29/10:00pm 29.6 27.2 6.8 23 12.4 E 9 11 5 6 1012.2 - 0.0
29/09:30pm 29.0 26.7 7.5 26 11.8 ESE 9 11 5 6 1012.0 - 0.0
29/09:00pm 30.1 27.9 7.7 24 12.4 ESE 9 11 5 6 1011.8 1009.6 0.0
29/08:30pm 32.0 30.3 8.5 23 13.3 SE 7 9 4 5 1011.8 - 0.0
29/08:00pm 33.7 30.7 4.3 16 15.7 ESE 9 11 5 6 1011.4 - 0.0
29/07:30pm 33.9 32.1 7.9 20 14.7 SE 7 9 4 5 1011.2 - 0.0
29/07:00pm 35.0 33.6 8.8 20 15.1 SE 6 7 3 4 1010.9 - 0.0
29/06:30pm 36.8 34.1 3.7 13 17.8 ESE 7 9 4 5 1010.7 - 0.0
29/06:00pm 38.0 34.2 1.9 10 19.0 NNE 11 15 6 8 1010.5 1008.1 0.0
29/05:30pm 38.4 34.9 1.3 10 19.4 NNE 9 15 5 8 1010.3 - 0.0
29/05:00pm 38.6 35.4 1.0 9 19.6 N 7 22 4 12 1010.1 - 0.0
29/04:30pm 39.0 33.9 0.8 9 19.9 NE 17 26 9 14 1010.1 - 0.0
29/04:00pm 39.7 34.6 0.9 9 20.3 ENE 17 26 9 14 1010.2 - 0.0
29/03:30pm 39.9 35.6 1.1 9 20.4 ENE 13 26 7 14 1010.3 - 0.0
29/03:00pm 40.1 35.8 0.7 8 20.6 ENE 13 24 7 13 1010.7 1008.6 0.0
29/02:30pm 39.3 31.8 -1.3 8 20.5 N 28 35 15 19 1011.2 - 0.0
29/02:00pm 39.4 34.3 0.5 9 20.2 N 17 26 9 14 1011.6 - 0.0
29/01:30pm 39.2 34.2 3.4 11 19.4 ENE 19 28 10 15 1012.1 - 0.0
29/01:00pm 39.3 33.2 0.6 9 20.1 NNE 22 33 12 18 1012.8 - 0.0
29/12:30pm 38.9 33.3 1.3 9 19.7 NNE 20 32 11 17 1013.3 - 0.0
29/12:00pm 38.3 31.2 1.3 10 19.3 NNE 28 43 15 23 1013.6 1011.5 0.0
29/11:31am 37.7 30.5 0.5 9 19.1 NNE 28 46 15 25 1014.0 - 0.0
29/11:30am 37.8 30.3 1.3 10 19.0 NNE 30 46 16 25 1014.0 - 0.0
29/11:23am 37.9 30.6 0.2 9 19.3 NNE 28 46 15 25 1014.1 - 0.0
29/11:00am 36.8 30.0 0.7 10 18.5 NE 26 37 14 20 1014.3 - 0.0
29/10:49am 37.0 29.8 0.4 10 18.7 NNE 28 46 15 25 1014.4 - 0.0
29/10:30am 36.5 29.7 0.8 10 18.3 NE 26 37 14 20 1014.5 - 0.0
29/10:00am 35.0 28.1 0.2 11 17.5 NNE 26 39 14 21 1014.7 - 0.0
29/09:30am 33.7 26.9 1.1 12 16.5 NNE 26 39 14 21 1014.8 - 0.0
29/09:00am 32.0 25.2 1.0 14 15.5 ENE 26 37 14 20 1014.7 1012.5 0.0
29/08:30am 30.6 25.0 1.3 15 14.6 NE 20 30 11 16 1014.8 - 0.0
29/08:00am 28.8 23.7 2.9 19 13.1 NE 19 26 10 14 1014.8 - 0.0
29/07:30am 26.4 24.1 5.8 26 10.8 ENE 7 15 4 8 1014.7 - 0.0
29/07:00am 22.5 21.1 7.3 37 8.0 S 4 6 2 3 1014.7 - 0.0
29/06:30am 21.5 18.8 5.8 36 8.0 SSE 9 11 5 6 1014.3 - 0.0
29/06:00am 22.3 20.4 7.5 38 7.8 ESE 7 9 4 5 1013.7 1011.4 0.0
29/05:30am 22.1 19.8 5.6 34 8.4 E 7 9 4 5 1013.2 - 0.0
29/05:00am 23.8 21.5 5.8 31 9.3 ENE 7 11 4 6 1013.0 - 0.0
29/04:30am 25.3 22.3 4.2 25 10.7 ESE 9 11 5 6 1012.6 - 0.0
29/04:00am 26.6 22.8 4.0 23 11.5 E 13 19 7 10 1012.3 - 0.0
29/03:30am 28.2 23.5 3.1 20 12.7 E 17 24 9 13 1012.1 - 0.0
29/03:00am 28.9 24.2 3.2 19 13.1 E 17 24 9 13 1011.9 1009.6 0.0
29/02:30am 28.2 24.5 4.5 22 12.3 E 13 19 7 10 1011.7 - 0.0
29/02:00am 26.7 23.5 5.2 25 11.2 E 11 17 6 9 1011.9 - 0.0
29/01:30am 25.1 23.8 6.0 29 10.0 SSE 2 7 1 4 1012.0 - 0.0
29/01:00am 28.4 25.8 6.1 24 11.9 E 9 11 5 6 1012.2 - 0.0
29/12:30am 29.5 26.2 4.7 20 13.0 ENE 11 20 6 11 1012.4 - 0.0
29/12:00am 29.3 26.1 5.0 21 12.8 ENE 11 17 6 9 1012.5 1010.4 0.0

Other Formats:

Comma delimited format used in spreadsheet applications
http://www.bom.gov.au/fwo/IDD60801/IDD60801.95322.axf

JavaScript Object Notation format (JSON) in row-major order
http://www.bom.gov.au/fwo/IDD60801/IDD60801.95322.json